Skip Navigation LinksHome page > Weather > Current weather Skip Navigation Links

Current Weather

Chicago O'Hare Intl, Chicago

For information only: do not use for flight planning or navigation.
Latest weather
Observation time Thursday, April 28, 2016 11:51 PM CDT
Local time Friday, April 29, 2016 12:43 AM CDT
Flight conditions Low Instrument Meteorological Conditions
Winds
Wind direction North (10°)
Wind speed 8 mph
Visibility 4 mi.
Present weather mist
Sky condition
Ceiling 400 ft. overcast
Cloud layer overcast 400 ft.
Temperature 42°F
Dewpoint 41°F
Altimeter 30.00 in.Hg
Derived measurements
Relative humidity 96%
Wind chill 37°F
Density altitude -431 ft.
Sea-level pressure 30.01 in.Hg
Remarks
Automated weather observing station with precipitation discriminator.
METAR KORD 290451Z 01007KT 4SM BR OVC004 06/05 A3000 RMK AO2 SLP163 T00560050

Settings

Location code

InnerDrive.Weather 4.0.5722.1 Release CLR 4.0.30319.34209
Copyright ©2015 Inner Drive Technology. All rights reserved. Portions Copyright ©1986-2015 David Braverman.

Find weather

Site navigation


Skip Navigation Links

Place info

Page info

PayPal - The safer, easier way to pay online!

Return home.

Copyright ©2016 Inner Drive Technology. Purveyors of fine, hand-crafted computer software. Page printed 2016-04-29T05:43:19 UTC.